sensor_id;sensor_type;location;lat;lon;timestamp;P1;durP1;ratioP1;P2;durP2;ratioP2
15699;SDS011;7950;42.744;23.174;2022-07-23T00:02:10;9.77;;;5.83;;
15699;SDS011;7950;42.744;23.174;2022-07-23T00:04:39;7.87;;;6.17;;
15699;SDS011;7950;42.744;23.174;2022-07-23T00:07:08;8.67;;;6.23;;
15699;SDS011;7950;42.744;23.174;2022-07-23T00:09:38;7.63;;;6.03;;
15699;SDS011;7950;42.744;23.174;2022-07-23T00:12:07;11.57;;;6.37;;
15699;SDS011;7950;42.744;23.174;2022-07-23T00:14:36;9.40;;;5.83;;
15699;SDS011;7950;42.744;23.174;2022-07-23T00:17:05;8.17;;;6.40;;
15699;SDS011;7950;42.744;23.174;2022-07-23T00:19:35;10.90;;;6.60;;
15699;SDS011;7950;42.744;23.174;2022-07-23T00:22:04;8.47;;;6.57;;
15699;SDS011;7950;42.744;23.174;2022-07-23T00:27:52;10.17;;;6.20;;
15699;SDS011;7950;42.744;23.174;2022-07-23T00:30:21;9.20;;;6.47;;
15699;SDS011;7950;42.744;23.174;2022-07-23T00:32:51;9.70;;;6.10;;
15699;SDS011;7950;42.744;23.174;2022-07-23T00:35:24;9.80;;;6.43;;
15699;SDS011;7950;42.744;23.174;2022-07-23T00:38:00;9.60;;;6.57;;
15699;SDS011;7950;42.744;23.174;2022-07-23T00:40:34;8.33;;;6.60;;
15699;SDS011;7950;42.744;23.174;2022-07-23T00:43:05;8.67;;;6.30;;
15699;SDS011;7950;42.744;23.174;2022-07-23T00:45:34;7.20;;;6.23;;
15699;SDS011;7950;42.744;23.174;2022-07-23T00:50:57;8.23;;;6.67;;
15699;SDS011;7950;42.744;23.174;2022-07-23T00:53:26;7.37;;;6.50;;
15699;SDS011;7950;42.744;23.174;2022-07-23T00:55:59;11.13;;;6.77;;
15699;SDS011;7950;42.744;23.174;2022-07-23T00:58:28;8.00;;;6.13;;
15699;SDS011;7950;42.744;23.174;2022-07-23T01:00:57;9.20;;;6.77;;
15699;SDS011;7950;42.744;23.174;2022-07-23T01:03:26;8.73;;;7.03;;
15699;SDS011;7950;42.744;23.174;2022-07-23T01:05:56;7.87;;;6.37;;
15699;SDS011;7950;42.744;23.174;2022-07-23T01:08:26;8.20;;;6.60;;
15699;SDS011;7950;42.744;23.174;2022-07-23T01:10:55;6.87;;;6.17;;
15699;SDS011;7950;42.744;23.174;2022-07-23T01:13:26;8.83;;;6.20;;
15699;SDS011;7950;42.744;23.174;2022-07-23T01:15:55;7.73;;;6.13;;
15699;SDS011;7950;42.744;23.174;2022-07-23T01:18:24;8.63;;;6.40;;
15699;SDS011;7950;42.744;23.174;2022-07-23T01:23:54;9.43;;;6.37;;
15699;SDS011;7950;42.744;23.174;2022-07-23T01:26:23;9.37;;;6.23;;
15699;SDS011;7950;42.744;23.174;2022-07-23T01:28:52;7.17;;;6.47;;
15699;SDS011;7950;42.744;23.174;2022-07-23T01:31:21;7.90;;;6.27;;
15699;SDS011;7950;42.744;23.174;2022-07-23T01:33:56;8.33;;;6.60;;
15699;SDS011;7950;42.744;23.174;2022-07-23T01:36:26;7.00;;;6.30;;
15699;SDS011;7950;42.744;23.174;2022-07-23T01:38:56;7.23;;;6.47;;
15699;SDS011;7950;42.744;23.174;2022-07-23T01:41:26;10.10;;;6.57;;
15699;SDS011;7950;42.744;23.174;2022-07-23T01:43:55;8.97;;;6.80;;
15699;SDS011;7950;42.744;23.174;2022-07-23T01:46:24;8.77;;;7.07;;
15699;SDS011;7950;42.744;23.174;2022-07-23T01:48:53;7.17;;;6.40;;
15699;SDS011;7950;42.744;23.174;2022-07-23T01:51:23;8.63;;;6.10;;
15699;SDS011;7950;42.744;23.174;2022-07-23T01:53:52;8.17;;;6.63;;
15699;SDS011;7950;42.744;23.174;2022-07-23T01:56:22;8.40;;;6.93;;
15699;SDS011;7950;42.744;23.174;2022-07-23T01:58:51;7.80;;;6.50;;
15699;SDS011;7950;42.744;23.174;2022-07-23T02:01:20;10.77;;;6.90;;
15699;SDS011;7950;42.744;23.174;2022-07-23T02:06:45;10.27;;;6.97;;
15699;SDS011;7950;42.744;23.174;2022-07-23T02:09:14;7.57;;;6.77;;
15699;SDS011;7950;42.744;23.174;2022-07-23T02:11:45;9.13;;;6.40;;
15699;SDS011;7950;42.744;23.174;2022-07-23T02:14:14;7.57;;;6.63;;
15699;SDS011;7950;42.744;23.174;2022-07-23T02:16:43;8.33;;;7.00;;
15699;SDS011;7950;42.744;23.174;2022-07-23T02:19:12;7.40;;;6.67;;
15699;SDS011;7950;42.744;23.174;2022-07-23T02:21:41;7.60;;;6.80;;
15699;SDS011;7950;42.744;23.174;2022-07-23T02:24:10;8.57;;;6.90;;
15699;SDS011;7950;42.744;23.174;2022-07-23T02:26:39;7.40;;;6.63;;
15699;SDS011;7950;42.744;23.174;2022-07-23T02:29:10;8.40;;;6.73;;
15699;SDS011;7950;42.744;23.174;2022-07-23T02:31:40;8.90;;;7.13;;
15699;SDS011;7950;42.744;23.174;2022-07-23T02:34:09;8.00;;;6.77;;
15699;SDS011;7950;42.744;23.174;2022-07-23T02:36:39;12.60;;;7.23;;
15699;SDS011;7950;42.744;23.174;2022-07-23T02:39:08;7.90;;;7.10;;
15699;SDS011;7950;42.744;23.174;2022-07-23T02:41:37;7.73;;;7.03;;
15699;SDS011;7950;42.744;23.174;2022-07-23T02:47:01;8.40;;;7.17;;
15699;SDS011;7950;42.744;23.174;2022-07-23T02:49:30;8.63;;;6.80;;
15699;SDS011;7950;42.744;23.174;2022-07-23T02:52:00;9.60;;;7.17;;
15699;SDS011;7950;42.744;23.174;2022-07-23T02:54:28;9.07;;;6.80;;
15699;SDS011;7950;42.744;23.174;2022-07-23T02:56:57;8.90;;;7.07;;
15699;SDS011;7950;42.744;23.174;2022-07-23T02:59:27;8.83;;;7.37;;
15699;SDS011;7950;42.744;23.174;2022-07-23T03:01:57;7.90;;;7.10;;
15699;SDS011;7950;42.744;23.174;2022-07-23T03:04:26;11.63;;;7.50;;
15699;SDS011;7950;42.744;23.174;2022-07-23T03:06:55;10.50;;;7.47;;
15699;SDS011;7950;42.744;23.174;2022-07-23T03:09:24;8.03;;;7.23;;
15699;SDS011;7950;42.744;23.174;2022-07-23T03:11:53;11.00;;;7.53;;
15699;SDS011;7950;42.744;23.174;2022-07-23T03:14:22;7.97;;;7.17;;
15699;SDS011;7950;42.744;23.174;2022-07-23T03:16:51;9.90;;;7.17;;
15699;SDS011;7950;42.744;23.174;2022-07-23T03:19:22;9.27;;;7.47;;
15699;SDS011;7950;42.744;23.174;2022-07-23T03:21:51;9.27;;;6.80;;
15699;SDS011;7950;42.744;23.174;2022-07-23T03:24:20;7.63;;;6.83;;
15699;SDS011;7950;42.744;23.174;2022-07-23T03:26:50;9.03;;;7.30;;
15699;SDS011;7950;42.744;23.174;2022-07-23T03:29:19;11.93;;;7.30;;
15699;SDS011;7950;42.744;23.174;2022-07-23T03:31:48;8.93;;;7.40;;
15699;SDS011;7950;42.744;23.174;2022-07-23T03:34:17;13.33;;;7.60;;
15699;SDS011;7950;42.744;23.174;2022-07-23T03:36:48;11.00;;;7.33;;
15699;SDS011;7950;42.744;23.174;2022-07-23T03:39:17;8.37;;;6.97;;
15699;SDS011;7950;42.744;23.174;2022-07-23T03:41:46;8.67;;;7.27;;
15699;SDS011;7950;42.744;23.174;2022-07-23T03:44:15;9.73;;;6.67;;
15699;SDS011;7950;42.744;23.174;2022-07-23T03:46:44;7.67;;;6.87;;
15699;SDS011;7950;42.744;23.174;2022-07-23T03:49:12;9.17;;;6.60;;
15699;SDS011;7950;42.744;23.174;2022-07-23T03:51:41;10.33;;;7.13;;
15699;SDS011;7950;42.744;23.174;2022-07-23T03:54:12;11.07;;;7.13;;
15699;SDS011;7950;42.744;23.174;2022-07-23T03:56:41;9.30;;;7.40;;
15699;SDS011;7950;42.744;23.174;2022-07-23T03:59:10;9.40;;;7.10;;
15699;SDS011;7950;42.744;23.174;2022-07-23T04:04:38;7.77;;;6.97;;
15699;SDS011;7950;42.744;23.174;2022-07-23T04:07:07;7.20;;;6.53;;
15699;SDS011;7950;42.744;23.174;2022-07-23T04:09:37;8.30;;;7.10;;
15699;SDS011;7950;42.744;23.174;2022-07-23T04:12:11;9.20;;;6.47;;
15699;SDS011;7950;42.744;23.174;2022-07-23T04:17:36;10.27;;;7.57;;
15699;SDS011;7950;42.744;23.174;2022-07-23T04:20:05;11.50;;;8.50;;
15699;SDS011;7950;42.744;23.174;2022-07-23T04:22:34;8.20;;;7.40;;
15699;SDS011;7950;42.744;23.174;2022-07-23T04:25:05;11.27;;;7.63;;
15699;SDS011;7950;42.744;23.174;2022-07-23T04:27:35;10.10;;;7.60;;
15699;SDS011;7950;42.744;23.174;2022-07-23T04:30:04;8.00;;;7.20;;
15699;SDS011;7950;42.744;23.174;2022-07-23T04:32:35;8.13;;;7.07;;
15699;SDS011;7950;42.744;23.174;2022-07-23T04:35:04;10.63;;;6.87;;
15699;SDS011;7950;42.744;23.174;2022-07-23T04:37:33;9.33;;;7.80;;
15699;SDS011;7950;42.744;23.174;2022-07-23T04:40:02;12.97;;;7.47;;
15699;SDS011;7950;42.744;23.174;2022-07-23T04:42:38;8.90;;;6.70;;
15699;SDS011;7950;42.744;23.174;2022-07-23T04:45:07;10.67;;;6.90;;
15699;SDS011;7950;42.744;23.174;2022-07-23T04:47:39;8.67;;;6.67;;
15699;SDS011;7950;42.744;23.174;2022-07-23T04:50:08;7.37;;;6.63;;
15699;SDS011;7950;42.744;23.174;2022-07-23T04:52:37;8.63;;;6.90;;
15699;SDS011;7950;42.744;23.174;2022-07-23T04:55:08;7.53;;;6.70;;
15699;SDS011;7950;42.744;23.174;2022-07-23T04:57:37;7.23;;;6.53;;
15699;SDS011;7950;42.744;23.174;2022-07-23T05:00:06;8.43;;;6.33;;
15699;SDS011;7950;42.744;23.174;2022-07-23T05:02:37;13.07;;;6.93;;
15699;SDS011;7950;42.744;23.174;2022-07-23T05:05:06;10.57;;;7.33;;
15699;SDS011;7950;42.744;23.174;2022-07-23T05:07:35;8.10;;;7.30;;
15699;SDS011;7950;42.744;23.174;2022-07-23T05:10:04;8.87;;;7.17;;
15699;SDS011;7950;42.744;23.174;2022-07-23T05:12:36;10.27;;;7.20;;
15699;SDS011;7950;42.744;23.174;2022-07-23T05:15:05;9.23;;;7.00;;
15699;SDS011;7950;42.744;23.174;2022-07-23T05:17:34;11.60;;;7.63;;
15699;SDS011;7950;42.744;23.174;2022-07-23T05:20:03;9.00;;;7.30;;
15699;SDS011;7950;42.744;23.174;2022-07-23T05:22:33;8.97;;;7.03;;
15699;SDS011;7950;42.744;23.174;2022-07-23T05:25:02;12.20;;;7.77;;
15699;SDS011;7950;42.744;23.174;2022-07-23T05:27:34;8.77;;;7.80;;
15699;SDS011;7950;42.744;23.174;2022-07-23T05:30:03;12.10;;;7.80;;
15699;SDS011;7950;42.744;23.174;2022-07-23T05:32:32;11.77;;;7.97;;
15699;SDS011;7950;42.744;23.174;2022-07-23T05:35:09;9.20;;;7.77;;
15699;SDS011;7950;42.744;23.174;2022-07-23T05:37:38;9.60;;;7.63;;
15699;SDS011;7950;42.744;23.174;2022-07-23T05:40:08;9.57;;;7.40;;
15699;SDS011;7950;42.744;23.174;2022-07-23T05:42:42;10.13;;;7.80;;
15699;SDS011;7950;42.744;23.174;2022-07-23T05:45:11;10.23;;;7.47;;
15699;SDS011;7950;42.744;23.174;2022-07-23T05:47:41;7.90;;;6.83;;
15699;SDS011;7950;42.744;23.174;2022-07-23T05:50:11;13.10;;;8.03;;
15699;SDS011;7950;42.744;23.174;2022-07-23T05:52:41;10.30;;;7.23;;
15699;SDS011;7950;42.744;23.174;2022-07-23T05:55:11;10.47;;;6.83;;
15699;SDS011;7950;42.744;23.174;2022-07-23T05:57:40;9.00;;;7.10;;
15699;SDS011;7950;42.744;23.174;2022-07-23T06:00:11;8.93;;;7.40;;
15699;SDS011;7950;42.744;23.174;2022-07-23T06:02:40;7.73;;;7.03;;
15699;SDS011;7950;42.744;23.174;2022-07-23T06:05:09;15.33;;;8.13;;
15699;SDS011;7950;42.744;23.174;2022-07-23T06:07:38;12.50;;;7.77;;
15699;SDS011;7950;42.744;23.174;2022-07-23T06:10:08;10.57;;;7.30;;
15699;SDS011;7950;42.744;23.174;2022-07-23T06:12:38;11.10;;;7.50;;
15699;SDS011;7950;42.744;23.174;2022-07-23T06:15:09;12.03;;;7.47;;
15699;SDS011;7950;42.744;23.174;2022-07-23T06:17:38;9.90;;;7.70;;
15699;SDS011;7950;42.744;23.174;2022-07-23T06:20:08;12.13;;;7.90;;
15699;SDS011;7950;42.744;23.174;2022-07-23T06:22:37;11.57;;;7.63;;
15699;SDS011;7950;42.744;23.174;2022-07-23T06:28:00;8.27;;;7.37;;
15699;SDS011;7950;42.744;23.174;2022-07-23T06:30:30;10.93;;;7.40;;
15699;SDS011;7950;42.744;23.174;2022-07-23T06:32:59;10.07;;;8.10;;
15699;SDS011;7950;42.744;23.174;2022-07-23T06:35:28;9.50;;;7.30;;
15699;SDS011;7950;42.744;23.174;2022-07-23T06:37:57;12.17;;;7.77;;
15699;SDS011;7950;42.744;23.174;2022-07-23T06:40:28;13.57;;;8.13;;
15699;SDS011;7950;42.744;23.174;2022-07-23T06:42:57;9.47;;;7.10;;
15699;SDS011;7950;42.744;23.174;2022-07-23T06:45:25;17.93;;;7.80;;
15699;SDS011;7950;42.744;23.174;2022-07-23T06:47:56;12.00;;;7.50;;
15699;SDS011;7950;42.744;23.174;2022-07-23T06:50:25;10.93;;;7.17;;
15699;SDS011;7950;42.744;23.174;2022-07-23T06:52:54;9.23;;;7.50;;
15699;SDS011;7950;42.744;23.174;2022-07-23T06:55:23;10.77;;;7.60;;
15699;SDS011;7950;42.744;23.174;2022-07-23T06:57:52;11.43;;;7.77;;
15699;SDS011;7950;42.744;23.174;2022-07-23T07:00:33;14.10;;;7.77;;
15699;SDS011;7950;42.744;23.174;2022-07-23T07:03:03;12.37;;;7.60;;
15699;SDS011;7950;42.744;23.174;2022-07-23T07:05:36;9.20;;;7.57;;
15699;SDS011;7950;42.744;23.174;2022-07-23T07:08:06;10.07;;;7.47;;
15699;SDS011;7950;42.744;23.174;2022-07-23T07:10:34;12.80;;;7.40;;
15699;SDS011;7950;42.744;23.174;2022-07-23T07:13:03;10.40;;;7.17;;
15699;SDS011;7950;42.744;23.174;2022-07-23T07:15:32;12.17;;;7.90;;
15699;SDS011;7950;42.744;23.174;2022-07-23T07:18:01;8.87;;;7.27;;
15699;SDS011;7950;42.744;23.174;2022-07-23T07:20:31;11.07;;;7.93;;
15699;SDS011;7950;42.744;23.174;2022-07-23T07:23:00;9.30;;;7.75;;
15699;SDS011;7950;42.744;23.174;2022-07-23T07:25:29;11.80;;;7.57;;
15699;SDS011;7950;42.744;23.174;2022-07-23T07:27:58;9.23;;;7.03;;
15699;SDS011;7950;42.744;23.174;2022-07-23T07:30:27;8.10;;;7.25;;
15699;SDS011;7950;42.744;23.174;2022-07-23T07:32:59;9.50;;;7.13;;
15699;SDS011;7950;42.744;23.174;2022-07-23T07:35:28;8.55;;;7.60;;
15699;SDS011;7950;42.744;23.174;2022-07-23T07:38:04;10.50;;;7.70;;
15699;SDS011;7950;42.744;23.174;2022-07-23T07:40:32;11.73;;;7.32;;
15699;SDS011;7950;42.744;23.174;2022-07-23T07:43:01;13.02;;;7.22;;
15699;SDS011;7950;42.744;23.174;2022-07-23T07:45:30;9.43;;;7.20;;
15699;SDS011;7950;42.744;23.174;2022-07-23T07:47:59;10.38;;;7.32;;
15699;SDS011;7950;42.744;23.174;2022-07-23T07:50:28;8.55;;;7.22;;
15699;SDS011;7950;42.744;23.174;2022-07-23T07:52:57;10.93;;;7.53;;
15699;SDS011;7950;42.744;23.174;2022-07-23T07:55:34;8.52;;;7.25;;
15699;SDS011;7950;42.744;23.174;2022-07-23T07:58:03;8.88;;;7.20;;
15699;SDS011;7950;42.744;23.174;2022-07-23T08:00:32;13.48;;;7.15;;
15699;SDS011;7950;42.744;23.174;2022-07-23T08:03:01;9.52;;;6.97;;
15699;SDS011;7950;42.744;23.174;2022-07-23T08:05:30;7.82;;;6.43;;
15699;SDS011;7950;42.744;23.174;2022-07-23T08:07:59;10.15;;;6.55;;
15699;SDS011;7950;42.744;23.174;2022-07-23T08:10:28;12.77;;;7.55;;
15699;SDS011;7950;42.744;23.174;2022-07-23T08:12:59;13.43;;;7.25;;
15699;SDS011;7950;42.744;23.174;2022-07-23T08:15:28;13.18;;;7.88;;
15699;SDS011;7950;42.744;23.174;2022-07-23T08:17:58;10.55;;;6.82;;
15699;SDS011;7950;42.744;23.174;2022-07-23T08:20:27;14.60;;;7.40;;
15699;SDS011;7950;42.744;23.174;2022-07-23T08:26:14;10.57;;;7.55;;
15699;SDS011;7950;42.744;23.174;2022-07-23T08:28:44;11.65;;;7.35;;
15699;SDS011;7950;42.744;23.174;2022-07-23T08:31:13;14.88;;;7.50;;
15699;SDS011;7950;42.744;23.174;2022-07-23T08:33:44;10.70;;;6.85;;
15699;SDS011;7950;42.744;23.174;2022-07-23T08:36:13;11.23;;;6.88;;
15699;SDS011;7950;42.744;23.174;2022-07-23T08:38:42;11.75;;;7.07;;
15699;SDS011;7950;42.744;23.174;2022-07-23T08:41:10;10.48;;;7.32;;
15699;SDS011;7950;42.744;23.174;2022-07-23T08:43:40;11.73;;;7.35;;
15699;SDS011;7950;42.744;23.174;2022-07-23T08:46:12;12.25;;;7.47;;
15699;SDS011;7950;42.744;23.174;2022-07-23T08:48:42;10.13;;;7.07;;
15699;SDS011;7950;42.744;23.174;2022-07-23T08:51:11;9.80;;;6.53;;
15699;SDS011;7950;42.744;23.174;2022-07-23T08:53:40;9.82;;;7.78;;
15699;SDS011;7950;42.744;23.174;2022-07-23T08:56:10;10.50;;;7.00;;
15699;SDS011;7950;42.744;23.174;2022-07-23T09:01:41;11.55;;;7.18;;
15699;SDS011;7950;42.744;23.174;2022-07-23T09:04:12;9.35;;;7.25;;
15699;SDS011;7950;42.744;23.174;2022-07-23T09:06:41;8.65;;;7.05;;
15699;SDS011;7950;42.744;23.174;2022-07-23T09:09:17;8.93;;;6.68;;
15699;SDS011;7950;42.744;23.174;2022-07-23T09:11:46;11.90;;;7.15;;
15699;SDS011;7950;42.744;23.174;2022-07-23T09:17:24;11.85;;;7.13;;
15699;SDS011;7950;42.744;23.174;2022-07-23T09:19:54;10.00;;;7.43;;
15699;SDS011;7950;42.744;23.174;2022-07-23T09:22:37;9.98;;;6.85;;
15699;SDS011;7950;42.744;23.174;2022-07-23T09:25:10;8.10;;;6.75;;
15699;SDS011;7950;42.744;23.174;2022-07-23T09:27:45;8.60;;;6.50;;
15699;SDS011;7950;42.744;23.174;2022-07-23T09:30:22;13.63;;;7.32;;
15699;SDS011;7950;42.744;23.174;2022-07-23T09:33:08;9.10;;;7.03;;
15699;SDS011;7950;42.744;23.174;2022-07-23T09:35:45;10.43;;;6.32;;
15699;SDS011;7950;42.744;23.174;2022-07-23T09:38:17;9.27;;;6.82;;
15699;SDS011;7950;42.744;23.174;2022-07-23T09:41:04;11.32;;;7.28;;
15699;SDS011;7950;42.744;23.174;2022-07-23T09:43:34;11.27;;;6.72;;
15699;SDS011;7950;42.744;23.174;2022-07-23T09:48:53;6.82;;;6.00;;
15699;SDS011;7950;42.744;23.174;2022-07-23T09:51:24;13.23;;;5.72;;
15699;SDS011;7950;42.744;23.174;2022-07-23T09:54:07;9.35;;;5.85;;
15699;SDS011;7950;42.744;23.174;2022-07-23T09:56:54;8.43;;;5.90;;
15699;SDS011;7950;42.744;23.174;2022-07-23T09:59:28;15.73;;;5.53;;
15699;SDS011;7950;42.744;23.174;2022-07-23T10:02:00;11.15;;;5.28;;
15699;SDS011;7950;42.744;23.174;2022-07-23T10:04:32;7.53;;;5.50;;
15699;SDS011;7950;42.744;23.174;2022-07-23T10:07:04;8.00;;;5.30;;
15699;SDS011;7950;42.744;23.174;2022-07-23T10:09:37;7.68;;;5.00;;
15699;SDS011;7950;42.744;23.174;2022-07-23T10:12:10;7.93;;;5.47;;
15699;SDS011;7950;42.744;23.174;2022-07-23T10:15:01;8.90;;;5.25;;
15699;SDS011;7950;42.744;23.174;2022-07-23T10:17:32;8.80;;;5.35;;
15699;SDS011;7950;42.744;23.174;2022-07-23T10:20:04;8.05;;;5.32;;
15699;SDS011;7950;42.744;23.174;2022-07-23T10:22:33;6.40;;;5.45;;
15699;SDS011;7950;42.744;23.174;2022-07-23T10:25:10;11.75;;;5.65;;
15699;SDS011;7950;42.744;23.174;2022-07-23T10:28:01;7.15;;;5.55;;
15699;SDS011;7950;42.744;23.174;2022-07-23T10:31:28;8.65;;;5.38;;
15699;SDS011;7950;42.744;23.174;2022-07-23T10:34:25;8.57;;;5.57;;
15699;SDS011;7950;42.744;23.174;2022-07-23T10:37:14;23.13;;;7.22;;
15699;SDS011;7950;42.744;23.174;2022-07-23T10:40:03;10.18;;;5.53;;
15699;SDS011;7950;42.744;23.174;2022-07-23T10:42:38;10.25;;;4.97;;
15699;SDS011;7950;42.744;23.174;2022-07-23T10:45:25;9.10;;;5.70;;
15699;SDS011;7950;42.744;23.174;2022-07-23T10:53:54;10.60;;;5.75;;
15699;SDS011;7950;42.744;23.174;2022-07-23T11:02:51;12.18;;;5.10;;
15699;SDS011;7950;42.744;23.174;2022-07-23T11:05:22;11.93;;;5.13;;
15699;SDS011;7950;42.744;23.174;2022-07-23T11:08:13;10.60;;;5.32;;
15699;SDS011;7950;42.744;23.174;2022-07-23T11:10:46;12.57;;;5.15;;
15699;SDS011;7950;42.744;23.174;2022-07-23T11:13:28;12.18;;;6.43;;
15699;SDS011;7950;42.744;23.174;2022-07-23T11:16:06;11.93;;;6.38;;
15699;SDS011;7950;42.744;23.174;2022-07-23T11:19:00;11.63;;;5.50;;
15699;SDS011;7950;42.744;23.174;2022-07-23T11:21:42;12.88;;;5.20;;
15699;SDS011;7950;42.744;23.174;2022-07-23T11:24:16;9.43;;;5.60;;
15699;SDS011;7950;42.744;23.174;2022-07-23T11:26:52;13.43;;;5.28;;
15699;SDS011;7950;42.744;23.174;2022-07-23T11:29:46;12.00;;;5.63;;
15699;SDS011;7950;42.744;23.174;2022-07-23T11:35:24;14.02;;;5.40;;
15699;SDS011;7950;42.744;23.174;2022-07-23T11:38:02;17.10;;;5.68;;
15699;SDS011;7950;42.744;23.174;2022-07-23T11:40:34;10.35;;;4.80;;
15699;SDS011;7950;42.744;23.174;2022-07-23T11:43:05;10.20;;;5.13;;
15699;SDS011;7950;42.744;23.174;2022-07-23T11:45:36;13.68;;;5.10;;
15699;SDS011;7950;42.744;23.174;2022-07-23T11:48:07;15.95;;;5.32;;
15699;SDS011;7950;42.744;23.174;2022-07-23T11:50:43;10.02;;;4.53;;
15699;SDS011;7950;42.744;23.174;2022-07-23T11:53:12;24.42;;;5.78;;
15699;SDS011;7950;42.744;23.174;2022-07-23T11:55:48;11.23;;;5.20;;
15699;SDS011;7950;42.744;23.174;2022-07-23T12:01:26;13.32;;;5.30;;
15699;SDS011;7950;42.744;23.174;2022-07-23T12:03:55;10.82;;;5.40;;
15699;SDS011;7950;42.744;23.174;2022-07-23T12:06:24;12.23;;;5.40;;
15699;SDS011;7950;42.744;23.174;2022-07-23T12:08:53;12.05;;;5.28;;
15699;SDS011;7950;42.744;23.174;2022-07-23T12:11:22;9.02;;;5.03;;
15699;SDS011;7950;42.744;23.174;2022-07-23T12:13:57;10.20;;;5.03;;
15699;SDS011;7950;42.744;23.174;2022-07-23T12:16:26;8.55;;;4.43;;
15699;SDS011;7950;42.744;23.174;2022-07-23T12:18:55;12.88;;;6.10;;
15699;SDS011;7950;42.744;23.174;2022-07-23T12:21:33;9.30;;;5.07;;
15699;SDS011;7950;42.744;23.174;2022-07-23T12:24:05;13.05;;;5.07;;
15699;SDS011;7950;42.744;23.174;2022-07-23T12:26:36;9.45;;;5.05;;
15699;SDS011;7950;42.744;23.174;2022-07-23T12:29:07;10.80;;;5.15;;
15699;SDS011;7950;42.744;23.174;2022-07-23T12:31:48;13.10;;;5.50;;
15699;SDS011;7950;42.744;23.174;2022-07-23T12:34:17;13.15;;;5.47;;
15699;SDS011;7950;42.744;23.174;2022-07-23T12:36:46;10.98;;;4.82;;
15699;SDS011;7950;42.744;23.174;2022-07-23T12:42:11;13.48;;;5.78;;
15699;SDS011;7950;42.744;23.174;2022-07-23T12:44:41;10.88;;;4.75;;
15699;SDS011;7950;42.744;23.174;2022-07-23T12:48:15;9.75;;;4.75;;
15699;SDS011;7950;42.744;23.174;2022-07-23T12:50:49;14.50;;;5.22;;
15699;SDS011;7950;42.744;23.174;2022-07-23T12:53:22;14.02;;;4.93;;
15699;SDS011;7950;42.744;23.174;2022-07-23T12:55:57;11.10;;;5.47;;
15699;SDS011;7950;42.744;23.174;2022-07-23T12:58:44;10.68;;;4.80;;
15699;SDS011;7950;42.744;23.174;2022-07-23T13:04:05;7.25;;;4.65;;
15699;SDS011;7950;42.744;23.174;2022-07-23T13:06:40;11.00;;;5.35;;
15699;SDS011;7950;42.744;23.174;2022-07-23T13:09:11;6.47;;;4.38;;
15699;SDS011;7950;42.744;23.174;2022-07-23T13:11:42;13.75;;;4.50;;
15699;SDS011;7950;42.744;23.174;2022-07-23T13:14:13;8.05;;;4.70;;
15699;SDS011;7950;42.744;23.174;2022-07-23T13:16:48;11.55;;;4.60;;
15699;SDS011;7950;42.744;23.174;2022-07-23T13:22:13;7.90;;;4.40;;
15699;SDS011;7950;42.744;23.174;2022-07-23T13:24:41;9.57;;;5.20;;
15699;SDS011;7950;42.744;23.174;2022-07-23T13:27:11;11.48;;;4.90;;
15699;SDS011;7950;42.744;23.174;2022-07-23T13:29:42;8.85;;;4.97;;
15699;SDS011;7950;42.744;23.174;2022-07-23T13:32:26;7.38;;;5.00;;
15699;SDS011;7950;42.744;23.174;2022-07-23T13:34:55;7.38;;;4.55;;
15699;SDS011;7950;42.744;23.174;2022-07-23T13:37:24;7.07;;;4.50;;
15699;SDS011;7950;42.744;23.174;2022-07-23T13:39:53;10.70;;;5.10;;
15699;SDS011;7950;42.744;23.174;2022-07-23T13:42:22;10.45;;;5.10;;
15699;SDS011;7950;42.744;23.174;2022-07-23T13:44:51;9.35;;;4.75;;
15699;SDS011;7950;42.744;23.174;2022-07-23T13:47:20;7.65;;;4.50;;
15699;SDS011;7950;42.744;23.174;2022-07-23T13:49:52;12.73;;;5.30;;
15699;SDS011;7950;42.744;23.174;2022-07-23T13:52:20;9.30;;;4.72;;
15699;SDS011;7950;42.744;23.174;2022-07-23T13:54:52;12.43;;;4.75;;
15699;SDS011;7950;42.744;23.174;2022-07-23T13:57:23;11.68;;;5.10;;
15699;SDS011;7950;42.744;23.174;2022-07-23T13:59:52;12.10;;;4.80;;
15699;SDS011;7950;42.744;23.174;2022-07-23T14:02:21;11.93;;;5.28;;
15699;SDS011;7950;42.744;23.174;2022-07-23T14:04:52;10.65;;;4.90;;
15699;SDS011;7950;42.744;23.174;2022-07-23T14:07:21;7.82;;;4.80;;
15699;SDS011;7950;42.744;23.174;2022-07-23T14:09:51;10.50;;;5.05;;
15699;SDS011;7950;42.744;23.174;2022-07-23T14:12:20;9.48;;;4.97;;
15699;SDS011;7950;42.744;23.174;2022-07-23T14:14:49;12.27;;;5.03;;
15699;SDS011;7950;42.744;23.174;2022-07-23T14:17:19;14.55;;;5.10;;
15699;SDS011;7950;42.744;23.174;2022-07-23T14:19:53;10.50;;;4.68;;
15699;SDS011;7950;42.744;23.174;2022-07-23T14:22:22;8.38;;;5.25;;
15699;SDS011;7950;42.744;23.174;2022-07-23T14:24:51;10.32;;;5.10;;
15699;SDS011;7950;42.744;23.174;2022-07-23T14:27:20;9.77;;;4.57;;
15699;SDS011;7950;42.744;23.174;2022-07-23T14:29:57;11.10;;;4.95;;
15699;SDS011;7950;42.744;23.174;2022-07-23T14:32:26;9.55;;;4.93;;
15699;SDS011;7950;42.744;23.174;2022-07-23T14:34:56;7.85;;;4.85;;
15699;SDS011;7950;42.744;23.174;2022-07-23T14:37:28;15.38;;;5.05;;
15699;SDS011;7950;42.744;23.174;2022-07-23T14:39:57;9.88;;;4.75;;
15699;SDS011;7950;42.744;23.174;2022-07-23T14:42:46;9.45;;;4.78;;
15699;SDS011;7950;42.744;23.174;2022-07-23T14:45:15;7.90;;;5.07;;
15699;SDS011;7950;42.744;23.174;2022-07-23T14:47:44;7.25;;;4.50;;
15699;SDS011;7950;42.744;23.174;2022-07-23T14:50:16;12.80;;;5.15;;
15699;SDS011;7950;42.744;23.174;2022-07-23T14:52:45;12.82;;;5.78;;
15699;SDS011;7950;42.744;23.174;2022-07-23T14:55:14;10.00;;;4.80;;
15699;SDS011;7950;42.744;23.174;2022-07-23T15:00:39;11.20;;;5.05;;
15699;SDS011;7950;42.744;23.174;2022-07-23T15:03:07;11.20;;;4.47;;
15699;SDS011;7950;42.744;23.174;2022-07-23T15:05:38;10.75;;;5.07;;
15699;SDS011;7950;42.744;23.174;2022-07-23T15:08:07;9.95;;;4.88;;
15699;SDS011;7950;42.744;23.174;2022-07-23T15:10:36;6.25;;;4.18;;
15699;SDS011;7950;42.744;23.174;2022-07-23T15:13:05;11.95;;;4.78;;
15699;SDS011;7950;42.744;23.174;2022-07-23T15:15:34;9.02;;;4.50;;
15699;SDS011;7950;42.744;23.174;2022-07-23T15:18:05;15.57;;;5.70;;
15699;SDS011;7950;42.744;23.174;2022-07-23T15:20:35;14.20;;;5.50;;
15699;SDS011;7950;42.744;23.174;2022-07-23T15:23:06;13.20;;;5.07;;
15699;SDS011;7950;42.744;23.174;2022-07-23T15:25:36;9.10;;;5.10;;
15699;SDS011;7950;42.744;23.174;2022-07-23T15:28:15;7.32;;;4.90;;
15699;SDS011;7950;42.744;23.174;2022-07-23T15:30:48;7.88;;;4.90;;
15699;SDS011;7950;42.744;23.174;2022-07-23T15:33:18;10.82;;;5.72;;
15699;SDS011;7950;42.744;23.174;2022-07-23T15:35:49;11.15;;;5.40;;
15699;SDS011;7950;42.744;23.174;2022-07-23T15:38:19;30.83;;;6.63;;
15699;SDS011;7950;42.744;23.174;2022-07-23T15:43:33;8.98;;;4.75;;
15699;SDS011;7950;42.744;23.174;2022-07-23T15:46:03;10.88;;;5.15;;
15699;SDS011;7950;42.744;23.174;2022-07-23T15:48:36;18.27;;;5.57;;
15699;SDS011;7950;42.744;23.174;2022-07-23T15:51:07;10.90;;;5.43;;
15699;SDS011;7950;42.744;23.174;2022-07-23T15:53:36;35.95;;;6.75;;
15699;SDS011;7950;42.744;23.174;2022-07-23T15:56:06;9.88;;;4.90;;
15699;SDS011;7950;42.744;23.174;2022-07-23T15:58:42;10.73;;;5.05;;
15699;SDS011;7950;42.744;23.174;2022-07-23T16:01:11;8.95;;;4.95;;
15699;SDS011;7950;42.744;23.174;2022-07-23T16:03:41;8.07;;;5.30;;
15699;SDS011;7950;42.744;23.174;2022-07-23T16:06:14;16.90;;;5.43;;
15699;SDS011;7950;42.744;23.174;2022-07-23T16:08:44;8.18;;;4.88;;
15699;SDS011;7950;42.744;23.174;2022-07-23T16:11:14;8.80;;;4.80;;
15699;SDS011;7950;42.744;23.174;2022-07-23T16:13:43;9.93;;;5.22;;
15699;SDS011;7950;42.744;23.174;2022-07-23T16:16:12;8.75;;;4.85;;